< Typhoon 196514 1965 Season Typhoon 196516 >
Typhoon 196515 (JEAN)
General InformationTrack Information on Google Maps || Disaster Info.ResourceGoogle EarthGE AnimationAtom FeedGeoJSON
Detalied Best Track (Time Zone = UTC)
Year Month Day Hour Lat. Long. Pressure (hPa) Wind (kt) Class Image Chart
1965 7 24 00 7.1 163.1 1007 0 2 -- Chart
1965 7 24 06 7.0 162.3 1006 0 2 -- Chart
1965 7 24 12 6.9 161.5 1006 0 2 -- Chart
1965 7 24 18 6.9 160.5 1004 0 2 -- Chart
1965 7 25 00 6.9 159.6 1006 0 2 -- Chart
1965 7 25 06 6.8 158.5 1004 0 2 -- Chart
1965 7 25 12 6.7 157.5 1006 0 2 -- Chart
1965 7 25 18 7.5 157.0 1006 0 2 -- Chart
1965 7 26 00 8.3 156.4 1004 0 2 -- Chart
1965 7 26 06 9.5 155.0 1004 0 2 -- Chart
1965 7 26 12 10.0 154.0 1004 0 2 -- Chart
1965 7 26 18 10.4 152.8 1004 0 2 -- Chart
1965 7 27 00 10.6 152.1 1004 0 2 -- Chart
1965 7 27 06 11.5 150.2 1002 0 2 -- Chart
1965 7 27 12 12.1 149.1 1004 0 2 -- Chart
1965 7 27 18 12.7 148.1 1004 0 2 -- Chart
1965 7 28 00 13.2 146.9 1004 0 2 -- Chart
1965 7 28 06 13.9 145.7 1004 0 2 -- Chart
1965 7 28 12 14.4 144.6 1004 0 2 -- Chart
1965 7 28 18 15.0 143.5 1004 0 2 -- Chart
1965 7 29 00 15.4 142.2 1004 0 2 -- Chart
1965 7 29 06 16.0 141.0 1002 0 2 -- Chart
1965 7 29 12 16.5 139.9 1002 0 2 -- Chart
1965 7 29 18 16.9 139.0 1000 0 2 -- Chart
1965 7 30 00 17.2 138.1 1000 0 2 -- Chart
1965 7 30 06 17.5 137.3 1000 0 2 -- Chart
1965 7 30 12 17.6 136.2 1000 0 2 -- Chart
1965 7 30 18 17.6 135.0 1000 0 2 -- Chart
1965 7 31 00 17.6 133.8 998 0 2 -- Chart
1965 7 31 06 17.7 132.9 994 0 9 -- Chart
1965 7 31 12 17.7 132.2 992 0 9 -- Chart
1965 7 31 18 17.9 131.6 990 0 9 -- Chart
1965 8 1 00 18.0 130.9 990 0 9 -- Chart
1965 8 1 06 18.5 130.4 985 0 9 -- Chart
1965 8 1 12 19.2 130.1 985 0 9 -- Chart
1965 8 1 18 20.0 129.6 985 0 9 -- Chart
1965 8 2 00 20.5 129.1 980 0 9 -- Chart
1965 8 2 06 20.8 128.5 980 0 9 -- Chart
1965 8 2 12 21.6 128.3 980 0 9 -- Chart
1965 8 2 18 22.3 128.0 975 0 9 -- Chart
1965 8 3 00 22.9 127.7 970 0 9 -- Chart
1965 8 3 06 23.5 127.1 965 0 9 -- Chart
1965 8 3 12 24.2 126.8 965 0 9 -- Chart
1965 8 3 18 24.7 126.8 965 0 9 -- Chart
1965 8 4 00 25.4 126.8 965 0 9 -- Chart
1965 8 4 06 26.1 126.8 950 0 9 -- Chart
1965 8 4 12 27.0 127.0 950 0 9 -- Chart
1965 8 4 18 27.9 127.3 950 0 9 -- Chart
1965 8 5 00 28.8 127.8 950 0 9 -- Chart
1965 8 5 06 29.8 128.3 950 0 9 -- Chart
1965 8 5 12 30.6 129.0 945 0 9 -- Chart
1965 8 5 18 31.9 129.9 940 0 9 -- Chart
1965 8 6 00 33.7 131.4 960 0 9 -- Chart
1965 8 6 06 36.1 132.1 970 0 9 -- Chart
1965 8 6 12 38.2 132.8 970 0 9 -- Chart
1965 8 6 18 40.6 133.8 970 0 9 -- Chart
1965 8 7 00 43.0 134.2 980 0 6 -- Chart
1965 8 7 06 45.0 134.2 982 0 6 -- Chart
1965 8 7 12 47.0 134.5 986 0 6 -- Chart
1965 8 7 18 47.5 135.0 988 0 6 -- Chart
1965 8 8 00 48.0 136.0 989 0 6 -- Chart
1965 8 8 06 49.0 138.0 988 0 6 -- Chart
1965 8 8 12 50.5 139.0 990 0 6 -- Chart
1965 8 8 18 52.0 141.0 990 0 6 -- Chart
1965 8 9 00 53.0 143.0 990 0 6 -- Chart
1965 8 9 06 53.5 144.9 988 0 6 -- Chart
1965 8 9 12 53.0 146.0 990 0 6 -- Chart
1965 8 9 18 53.0 147.0 990 0 6 -- Chart
1965 8 10 00 53.0 148.0 990 0 6 -- Chart
1965 8 10 06 53.0 149.0 992 0 6 -- Chart
1965 8 10 12 53.0 150.0 992 0 6 -- Chart
1965 8 10 18 53.0 151.0 994 0 6 -- Chart
1965 8 11 00 53.0 152.0 998 0 6 -- Chart
1965 8 11 06 52.0 153.0 1000 0 6 -- Chart
1965 8 11 12 51.0 155.0 1000 0 6 -- Chart
1965 8 11 18 51.0 157.0 1000 0 6 -- Chart
1965 8 12 00 50.5 159.0 1000 0 6 -- Chart
1965 8 12 06 49.0 162.0 1000 0 6 -- Chart
1965 8 12 12 48.0 166.0 1000 0 6 -- Chart
1965 8 12 18 48.0 168.0 1000 0 6 -- Chart
1965 8 13 00 49.0 170.0 998 0 6 -- Chart
1965 8 13 06 50.0 171.5 995 0 6 -- Chart
1965 8 13 12 51.3 174.0 995 0 6 -- Chart
1965 8 13 18 52.0 177.0 995 0 6 -- Chart
1965 8 14 00 53.0 181.0 992 0 6 -- Chart
Japan Meteorological Agency Best Track Data | Correction Date : 1991-07-16
< Typhoon 196514 1965 Season Typhoon 196516 >

Help